PRINT OUT SECTION, show »

METAR EPBY 211730Z 08011KT CAVOK 25/14 Q1012=

METAR EPGD 211730Z 06009KT CAVOK 17/09 Q1014 =

METAR EPKK 211730Z 06009KT CAVOK 26/19 Q1013 =

METAR EPKT 211730Z 15007KT CAVOK 28/19 Q1013 =

METAR EPLB 211730Z 07003KT CAVOK 24/17 Q1015 =

METAR EPLL 211730Z 11004KT 080V140 CAVOK 29/14 Q1012 =

METAR EPML 211730Z AUTO 09004KT 060V130 9999 NCD 28/16 Q1013=

METAR EPMO 211730Z 07005KT CAVOK 25/15 Q1013 =

METAR EPPO 211730Z 11007KT CAVOK 25/16 Q1011 =

METAR EPRA 211730Z 12006KT CAVOK 25/14 Q1014=

METAR EPRZ 211730Z 08007KT CAVOK 25/17 Q1014 =

METAR EPSC 211730Z 07010KT 9999 -SHRA SCT050CB 21/18 Q1010 =

METAR EPSY 211730Z 17004KT CAVOK 25/10 Q1014=

METAR EPWA 211730Z 11007KT CAVOK 26/13 Q1013 NOSIG=

METAR EPWR 211730Z 11006KT CAVOK 28/20 Q1011 =

METAR EPZG 211730Z 04003KT 9999 -SHRA VCTS SCT040CB 25/19 Q1011 =
 METAR EPSY
Lokalizacja:EPSY Olsztyn Mazury
Czas:17:30 UTC
Średni kierunek wiatru:170 °
Średnia prędkość wiatru:4 węzłów
CAVOK:Widzialność 10 km i więcej, zjawisko: NIL, zachmurzenie: NSC
Temperatura powietrza:25 °C
Temperatura punktu rosy:10 °C
Ciśnienie QNH:1014 hPa